Time;durP1;ratioP1;P1;durP2;ratioP2;P2;SDS_P1;SDS_P2;PMS_P1;PMS_P2;Temp;Humidity;BMP_temperature;BMP_pressure;BME280_temperature;BME280_humidity;BME280_pressure;Samples;Min_cycle;Max_cycle;Signal;HPM_P1;HPM_P2
2022/06/27 00:00:53;;;;;;;0.90;0.10;;;26.80;42.90;;;;;;5071183;28;20124;-52
2022/06/27 00:03:20;;;;;;;0.52;0.38;;;26.80;42.30;;;;;;5078206;28;20052;-53
2022/06/27 00:05:47;;;;;;;0.52;0.30;;;26.70;42.30;;;;;;5072239;28;20066;-48
2022/06/27 00:08:15;;;;;;;0.20;0.10;;;26.80;42.30;;;;;;5078019;28;20032;-50
2022/06/27 00:10:42;;;;;;;0.35;0.15;;;26.80;42.30;;;;;;5082461;28;20064;-50
2022/06/27 00:13:10;;;;;;;0.10;0.00;;;26.70;42.30;;;;;;5082245;28;20417;-51
2022/06/27 00:15:37;;;;;;;0.17;0.10;;;26.70;42.30;;;;;;5070432;28;20040;-52
2022/06/27 00:18:04;;;;;;;0.47;0.00;;;26.70;42.40;;;;;;5076792;28;20042;-51
2022/06/27 00:20:31;;;;;;;0.10;0.05;;;26.70;42.40;;;;;;5078586;28;20058;-51
2022/06/27 00:22:59;;;;;;;0.77;0.20;;;26.70;42.50;;;;;;5072605;28;20436;-50
2022/06/27 00:25:27;;;;;;;1.27;0.10;;;26.70;42.50;;;;;;5070911;28;20051;-50
2022/06/27 00:27:54;;;;;;;1.30;0.10;;;26.70;42.50;;;;;;5071656;28;20075;-53
2022/06/27 00:30:21;;;;;;;0.20;0.10;;;26.60;42.40;;;;;;5085056;28;20094;-55
2022/06/27 00:32:49;;;;;;;0.10;0.10;;;26.70;42.50;;;;;;5076290;28;20067;-52
2022/06/27 00:35:16;;;;;;;0.28;0.10;;;26.70;42.60;;;;;;5082787;28;20044;-56
2022/06/27 00:37:43;;;;;;;0.10;0.10;;;26.70;42.60;;;;;;5073358;28;20139;-53
2022/06/27 00:40:11;;;;;;;0.20;0.20;;;26.70;42.60;;;;;;5080893;28;20036;-53
2022/06/27 00:42:39;;;;;;;0.80;0.10;;;26.60;42.60;;;;;;5085936;28;20125;-52
2022/06/27 00:45:07;;;;;;;0.68;0.10;;;26.60;42.60;;;;;;5081792;28;20044;-50
2022/06/27 00:47:34;;;;;;;0.63;0.00;;;26.60;42.60;;;;;;5071378;28;20583;-53
2022/06/27 00:50:01;;;;;;;1.52;0.10;;;26.60;42.60;;;;;;5073847;28;20040;-50
2022/06/27 00:52:28;;;;;;;1.00;0.10;;;26.60;42.70;;;;;;5071031;28;20567;-51
2022/06/27 00:54:56;;;;;;;1.65;0.30;;;26.60;42.60;;;;;;5058409;28;20048;-50
2022/06/27 00:57:24;;;;;;;0.43;0.10;;;26.60;42.60;;;;;;5055558;28;20121;-52
2022/06/27 00:59:52;;;;;;;0.10;0.10;;;26.60;42.70;;;;;;5076042;28;20056;-54
2022/06/27 01:02:20;;;;;;;0.10;0.10;;;26.60;42.70;;;;;;5075480;28;20044;-53
2022/06/27 01:04:47;;;;;;;0.57;0.10;;;26.60;42.70;;;;;;5071373;28;20047;-51
2022/06/27 01:07:14;;;;;;;0.10;0.03;;;26.60;42.70;;;;;;5068074;28;20440;-51
2022/06/27 01:09:43;;;;;;;0.35;0.10;;;26.60;42.80;;;;;;5073182;28;20045;-54
2022/06/27 01:12:10;;;;;;;0.00;0.00;;;26.60;42.80;;;;;;5086194;28;20126;-50
2022/06/27 01:14:37;;;;;;;0.45;0.10;;;26.60;42.80;;;;;;5073569;28;20412;-53
2022/06/27 01:17:06;;;;;;;0.68;0.10;;;26.60;42.80;;;;;;5075058;28;20042;-52
2022/06/27 01:19:33;;;;;;;0.40;0.10;;;26.50;42.70;;;;;;5070069;28;20038;-52
2022/06/27 01:22:00;;;;;;;0.52;0.20;;;26.50;42.70;;;;;;5059975;28;20041;-49
2022/06/27 01:24:29;;;;;;;0.35;0.00;;;26.50;42.80;;;;;;5058532;28;20049;-52
2022/06/27 01:26:58;;;;;;;0.32;0.15;;;26.50;42.80;;;;;;5077237;28;20115;-52
2022/06/27 01:29:25;;;;;;;1.65;0.08;;;26.50;43.40;;;;;;5078071;28;20123;-54
2022/06/27 01:31:52;;;;;;;0.10;0.00;;;26.50;42.80;;;;;;5079940;28;20101;-51
2022/06/27 01:34:20;;;;;;;0.20;0.20;;;26.50;42.80;;;;;;5069789;28;20079;-51
2022/06/27 01:36:48;;;;;;;0.30;0.10;;;26.50;42.80;;;;;;5058827;28;21255;-52
2022/06/27 01:39:19;;;;;;;0.15;0.10;;;26.50;42.80;;;;;;5075816;28;20052;-55
2022/06/27 01:41:50;;;;;;;0.20;0.10;;;26.50;42.80;;;;;;5081490;28;20119;-55
2022/06/27 01:44:19;;;;;;;0.15;0.15;;;26.50;42.90;;;;;;5082700;28;20067;-48
2022/06/27 01:46:48;;;;;;;0.95;0.10;;;26.50;42.90;;;;;;5071605;28;20056;-49
2022/06/27 01:49:17;;;;;;;0.47;0.10;;;26.50;42.90;;;;;;5068728;28;20127;-51
2022/06/27 01:51:45;;;;;;;0.10;0.10;;;26.50;42.90;;;;;;5070824;28;20457;-51
2022/06/27 01:54:14;;;;;;;0.52;0.10;;;26.50;42.90;;;;;;5084092;28;20048;-52
2022/06/27 01:56:42;;;;;;;0.20;0.20;;;26.50;42.90;;;;;;5074427;28;20123;-52
2022/06/27 01:59:11;;;;;;;0.10;0.10;;;26.50;42.90;;;;;;5075041;28;20105;-50
2022/06/27 02:01:40;;;;;;;0.43;0.38;;;26.50;42.90;;;;;;5073472;28;20032;-49
2022/06/27 02:04:08;;;;;;;0.10;0.10;;;26.50;42.90;;;;;;5057846;28;20123;-51
2022/06/27 02:06:36;;;;;;;0.30;0.10;;;26.50;42.90;;;;;;5054522;28;20095;-51
2022/06/27 02:09:10;;;;;;;0.20;0.10;;;26.50;42.90;;;;;;5074415;28;20501;-49
2022/06/27 02:11:39;;;;;;;0.95;0.10;;;26.40;42.90;;;;;;5063743;28;20068;-49
2022/06/27 02:14:15;;;;;;;0.47;0.10;;;26.50;43.00;;;;;;5078997;28;20090;-52
2022/06/27 02:16:43;;;;;;;0.10;0.10;;;26.50;43.00;;;;;;5070781;28;20496;-50
2022/06/27 02:19:13;;;;;;;0.40;0.20;;;26.40;42.90;;;;;;5054345;28;20033;-52
2022/06/27 02:21:42;;;;;;;0.70;0.10;;;26.50;43.00;;;;;;5076022;28;20076;-54
2022/06/27 02:24:10;;;;;;;2.42;0.20;;;26.40;42.90;;;;;;5087183;28;20044;-52
2022/06/27 02:26:37;;;;;;;0.10;0.10;;;26.40;42.90;;;;;;5078810;28;20036;-55
2022/06/27 02:29:05;;;;;;;0.38;0.10;;;26.40;42.90;;;;;;5071617;28;20029;-53
2022/06/27 02:31:35;;;;;;;0.15;0.00;;;26.40;42.90;;;;;;5072268;28;20591;-54
2022/06/27 02:34:02;;;;;;;0.10;0.10;;;26.40;42.90;;;;;;5069103;28;20039;-52
2022/06/27 02:36:32;;;;;;;0.65;0.10;;;26.40;42.90;;;;;;5084116;28;20081;-51
2022/06/27 02:39:02;;;;;;;0.10;0.00;;;26.40;42.90;;;;;;5080272;28;20060;-55
2022/06/27 02:41:34;;;;;;;0.10;0.10;;;26.40;43.00;;;;;;5081392;28;20074;-53
2022/06/27 02:44:03;;;;;;;0.10;0.10;;;26.40;42.90;;;;;;5084651;28;20144;-53
2022/06/27 02:46:31;;;;;;;0.30;0.10;;;26.40;43.00;;;;;;5058540;28;20768;-53
2022/06/27 02:49:02;;;;;;;0.43;0.00;;;26.40;43.00;;;;;;5051043;28;20037;-54
2022/06/27 02:51:37;;;;;;;0.25;0.10;;;26.40;43.00;;;;;;5078154;28;20044;-52
2022/06/27 02:54:08;;;;;;;0.10;0.10;;;26.40;43.00;;;;;;5089617;28;20417;-53
2022/06/27 02:56:58;;;;;;;0.40;0.10;;;26.40;43.00;;;;;;5077870;28;20087;-49
2022/06/27 02:59:28;;;;;;;0.30;0.30;;;26.40;43.00;;;;;;5079379;28;20036;-50
2022/06/27 03:01:58;;;;;;;0.00;0.00;;;26.40;43.00;;;;;;5077068;28;20139;-51
2022/06/27 03:04:42;;;;;;;1.05;0.10;;;26.40;43.00;;;;;;5057765;28;20067;-51
2022/06/27 03:07:10;;;;;;;0.10;0.10;;;26.40;43.00;;;;;;5069633;28;20037;-50
2022/06/27 03:09:37;;;;;;;0.20;0.03;;;26.40;43.00;;;;;;5059265;28;20763;-51
2022/06/27 03:12:05;;;;;;;0.30;0.10;;;26.40;43.00;;;;;;5070959;28;20040;-50
2022/06/27 03:14:34;;;;;;;0.40;0.10;;;26.40;43.10;;;;;;5076158;28;20055;-53
2022/06/27 03:17:01;;;;;;;1.77;0.20;;;26.40;43.00;;;;;;5076865;28;20097;-50
2022/06/27 03:19:35;;;;;;;0.25;0.25;;;26.40;43.00;;;;;;5050994;28;20037;-52
2022/06/27 03:22:31;;;;;;;0.15;0.10;;;26.40;43.00;;;;;;5082553;28;20059;-49
2022/06/27 03:24:59;;;;;;;0.10;0.10;;;26.40;43.10;;;;;;5054682;28;20094;-52
2022/06/27 03:27:27;;;;;;;1.00;0.20;;;26.40;43.00;;;;;;5083303;28;20051;-53
2022/06/27 03:29:55;;;;;;;0.10;0.10;;;26.40;43.00;;;;;;5062294;28;20097;-52
2022/06/27 03:32:22;;;;;;;0.10;0.10;;;26.40;43.10;;;;;;5076997;28;20098;-52
2022/06/27 03:34:58;;;;;;;0.95;0.00;;;26.40;43.00;;;;;;5076302;28;20050;-51
2022/06/27 03:37:26;;;;;;;0.20;0.00;;;26.40;43.10;;;;;;5073704;28;20043;-51
2022/06/27 03:39:56;;;;;;;0.10;0.10;;;26.40;43.00;;;;;;5050454;28;20961;-51
2022/06/27 03:42:23;;;;;;;1.10;0.10;;;26.40;43.00;;;;;;5085791;28;20037;-55
2022/06/27 03:44:50;;;;;;;0.47;0.10;;;26.40;43.10;;;;;;5077322;28;20044;-51
2022/06/27 03:47:17;;;;;;;0.10;0.10;;;26.30;43.00;;;;;;5060823;28;20475;-55
2022/06/27 03:50:24;;;;;;;0.05;0.00;;;26.40;43.10;;;;;;5025920;28;20048;-51
2022/06/27 03:52:53;;;;;;;0.10;0.10;;;26.40;43.10;;;;;;5027903;28;20103;-51
2022/06/27 03:55:22;;;;;;;0.10;0.10;;;26.30;43.00;;;;;;5014008;28;20052;-48
2022/06/27 03:57:51;;;;;;;0.30;0.30;;;26.40;43.20;;;;;;5007940;28;20529;-52
2022/06/27 04:00:20;;;;;;;0.10;0.03;;;26.40;43.10;;;;;;5030498;28;20045;-50
2022/06/27 04:02:51;;;;;;;0.15;0.10;;;26.30;43.10;;;;;;5005291;28;20062;-51
2022/06/27 04:05:37;;;;;;;0.00;0.00;;;26.30;43.10;;;;;;5027144;28;20054;-51
2022/06/27 04:08:05;;;;;;;0.10;0.10;;;26.30;43.10;;;;;;5012422;28;20145;-50
2022/06/27 04:10:37;;;;;;;0.20;0.10;;;26.30;43.10;;;;;;5025366;28;20537;-52
2022/06/27 04:13:04;;;;;;;0.10;0.00;;;26.30;43.10;;;;;;5009927;28;20038;-53
2022/06/27 04:15:35;;;;;;;0.43;0.10;;;26.30;43.10;;;;;;5027628;28;20057;-48
2022/06/27 04:18:21;;;;;;;0.00;0.00;;;26.30;43.10;;;;;;5030738;28;20060;-52
2022/06/27 04:21:00;;;;;;;0.13;0.10;;;26.30;43.10;;;;;;5046189;28;20053;-50
2022/06/27 04:23:42;;;;;;;0.20;0.20;;;26.30;43.20;;;;;;5075164;28;20040;-53
2022/06/27 04:26:13;;;;;;;0.08;0.00;;;26.30;43.20;;;;;;5076627;28;20504;-52
2022/06/27 04:28:40;;;;;;;0.10;0.00;;;26.30;43.20;;;;;;5072804;28;20032;-55
2022/06/27 04:31:07;;;;;;;0.50;0.15;;;26.30;43.20;;;;;;5081752;28;20037;-53
2022/06/27 04:33:35;;;;;;;0.00;0.00;;;26.30;43.20;;;;;;5057750;28;20040;-52
2022/06/27 04:36:04;;;;;;;0.05;0.00;;;26.30;43.20;;;;;;5083691;28;20048;-52
2022/06/27 04:38:33;;;;;;;0.20;0.15;;;26.30;43.20;;;;;;5074665;28;20032;-51
2022/06/27 04:41:28;;;;;;;1.13;0.10;;;26.30;43.20;;;;;;5078681;28;20052;-53
2022/06/27 04:43:55;;;;;;;0.10;0.10;;;26.30;43.20;;;;;;5083372;28;20032;-49
2022/06/27 04:46:23;;;;;;;0.10;0.10;;;26.30;43.20;;;;;;5057855;28;20036;-52
2022/06/27 04:49:26;;;;;;;0.10;0.10;;;26.30;43.20;;;;;;4985129;28;20038;-54
2022/06/27 04:51:54;;;;;;;0.10;0.10;;;26.30;43.30;;;;;;4989317;28;20081;-50
2022/06/27 04:54:22;;;;;;;0.05;0.05;;;26.30;43.30;;;;;;4992739;28;20517;-52
2022/06/27 04:56:52;;;;;;;0.10;0.00;;;26.30;43.30;;;;;;4987089;28;20056;-51
2022/06/27 04:59:21;;;;;;;0.13;0.00;;;26.30;43.30;;;;;;4983732;28;20050;-50
2022/06/27 05:01:53;;;;;;;0.20;0.20;;;26.30;43.90;;;;;;4970984;28;20046;-53
2022/06/27 05:04:22;;;;;;;1.35;0.90;;;26.30;43.20;;;;;;4994522;28;20326;-54
2022/06/27 05:06:50;;;;;;;0.05;0.00;;;26.30;43.20;;;;;;5000587;28;27468;-51
2022/06/27 05:09:18;;;;;;;0.43;0.10;;;26.30;43.20;;;;;;4995029;28;20145;-49
2022/06/27 05:11:45;;;;;;;0.03;0.00;;;26.30;43.20;;;;;;4984193;28;20088;-49
2022/06/27 05:14:14;;;;;;;0.30;0.10;;;26.30;43.20;;;;;;4994732;28;20050;-52
2022/06/27 05:16:50;;;;;;;0.30;0.10;;;26.30;43.20;;;;;;4995426;28;20245;-52
2022/06/27 05:19:19;;;;;;;1.00;0.10;;;26.30;43.20;;;;;;4996878;28;20584;-51
2022/06/27 05:21:47;;;;;;;0.52;0.10;;;26.30;43.20;;;;;;5001270;28;20125;-50
2022/06/27 05:24:17;;;;;;;0.05;0.00;;;26.30;43.20;;;;;;5055017;28;20072;-52
2022/06/27 05:26:46;;;;;;;0.10;0.08;;;26.30;43.20;;;;;;5080278;28;20052;-54
2022/06/27 05:29:15;;;;;;;0.30;0.10;;;26.30;43.20;;;;;;5073746;28;20044;-49
2022/06/27 05:31:42;;;;;;;0.52;0.03;;;26.30;43.20;;;;;;5072596;28;20040;-55
2022/06/27 05:34:09;;;;;;;0.30;0.05;;;26.30;43.40;;;;;;5052300;28;20044;-53
2022/06/27 05:36:37;;;;;;;0.10;0.10;;;26.40;43.20;;;;;;5061884;28;20529;-55
2022/06/27 05:39:05;;;;;;;0.25;0.03;;;26.40;43.20;;;;;;5085652;28;20044;-51
2022/06/27 05:41:32;;;;;;;0.10;0.00;;;26.40;43.20;;;;;;5080939;28;20047;-51
2022/06/27 05:44:05;;;;;;;0.13;0.00;;;26.40;43.10;;;;;;5083787;28;20038;-49
2022/06/27 05:46:34;;;;;;;0.35;0.03;;;26.40;43.10;;;;;;5039919;28;20412;-48
2022/06/27 05:49:18;;;;;;;0.63;0.10;;;26.40;43.10;;;;;;5067325;28;20040;-51
2022/06/27 05:51:51;;;;;;;0.15;0.15;;;26.40;43.10;;;;;;5072991;28;20110;-50
2022/06/27 05:54:18;;;;;;;0.35;0.00;;;26.40;43.10;;;;;;5083029;28;20048;-48
2022/06/27 05:56:46;;;;;;;0.08;0.08;;;26.40;43.10;;;;;;5073601;28;20076;-49
2022/06/27 05:59:13;;;;;;;0.28;0.10;;;26.40;43.10;;;;;;5074426;28;20036;-48
2022/06/27 06:01:43;;;;;;;0.55;0.10;;;26.40;43.20;;;;;;5070274;28;20044;-51
2022/06/27 06:04:12;;;;;;;0.20;0.10;;;26.40;43.20;;;;;;5058290;28;20055;-54
2022/06/27 06:06:41;;;;;;;0.10;0.10;;;26.40;43.20;;;;;;5052370;28;20049;-51
2022/06/27 06:09:08;;;;;;;0.10;0.10;;;26.40;43.20;;;;;;5072112;28;20098;-49
2022/06/27 06:11:36;;;;;;;0.60;0.10;;;26.40;43.10;;;;;;5082983;28;20492;-51
2022/06/27 06:14:04;;;;;;;0.45;0.10;;;26.40;43.20;;;;;;5067790;28;20040;-50
2022/06/27 06:16:32;;;;;;;0.68;0.00;;;26.40;43.10;;;;;;5072960;28;20044;-50
2022/06/27 06:19:01;;;;;;;0.25;0.10;;;26.40;43.10;;;;;;5060518;28;20117;-53
2022/06/27 06:21:29;;;;;;;1.95;0.15;;;26.50;43.20;;;;;;5062857;28;20143;-51
2022/06/27 06:23:57;;;;;;;0.20;0.10;;;26.40;43.10;;;;;;5088473;28;20106;-52
2022/06/27 06:26:25;;;;;;;0.47;0.10;;;26.50;43.20;;;;;;5089406;28;20046;-54
2022/06/27 06:28:53;;;;;;;0.10;0.10;;;26.50;43.20;;;;;;5085227;28;20049;-49
2022/06/27 06:31:24;;;;;;;0.10;0.03;;;26.50;43.20;;;;;;5079601;28;20040;-48
2022/06/27 06:33:56;;;;;;;0.27;0.10;;;26.50;43.20;;;;;;5082369;28;20068;-53
2022/06/27 06:36:26;;;;;;;1.88;0.13;;;26.50;43.20;;;;;;5081560;28;20041;-50
2022/06/27 06:38:54;;;;;;;0.38;0.10;;;26.50;43.20;;;;;;5078536;28;20047;-52
2022/06/27 06:41:22;;;;;;;0.68;0.10;;;26.50;43.20;;;;;;5080478;28;20397;-51
2022/06/27 06:43:50;;;;;;;0.30;0.10;;;26.50;43.10;;;;;;5084783;28;20127;-53
2022/06/27 06:46:36;;;;;;;1.17;0.10;;;26.50;43.20;;;;;;5076351;28;20028;-49
2022/06/27 06:49:08;;;;;;;0.38;0.10;;;26.50;43.20;;;;;;5065787;28;20050;-53
2022/06/27 06:51:39;;;;;;;1.38;0.00;;;26.50;43.20;;;;;;5073376;28;20088;-53
2022/06/27 06:54:08;;;;;;;0.98;0.10;;;26.50;43.30;;;;;;5077088;28;20150;-52
2022/06/27 06:56:36;;;;;;;2.58;0.10;;;26.50;43.20;;;;;;5073643;28;20029;-49
2022/06/27 06:59:04;;;;;;;0.40;0.10;;;26.50;43.10;;;;;;5077404;28;20040;-52
2022/06/27 07:01:33;;;;;;;1.45;0.10;;;26.60;43.10;;;;;;5072271;28;20044;-53
2022/06/27 07:04:01;;;;;;;2.15;0.40;;;26.60;43.10;;;;;;5075038;28;20051;-54
2022/06/27 07:06:29;;;;;;;0.10;0.10;;;26.60;43.10;;;;;;5059893;28;20115;-54
2022/06/27 07:08:59;;;;;;;0.03;0.03;;;26.60;43.00;;;;;;5078803;28;20114;-55
2022/06/27 07:11:29;;;;;;;0.52;0.10;;;26.60;43.00;;;;;;5080784;28;20050;-53
2022/06/27 07:13:57;;;;;;;0.10;0.10;;;26.60;43.00;;;;;;5075703;28;20040;-50
2022/06/27 07:16:26;;;;;;;0.95;0.10;;;26.60;42.90;;;;;;5055684;28;20078;-53
2022/06/27 07:18:54;;;;;;;0.35;0.10;;;26.60;42.90;;;;;;5073585;28;20049;-50
2022/06/27 07:21:21;;;;;;;0.30;0.10;;;26.60;42.90;;;;;;5074083;28;20522;-52
2022/06/27 07:23:52;;;;;;;0.13;0.03;;;26.60;42.90;;;;;;5075853;28;20047;-51
2022/06/27 07:26:23;;;;;;;0.20;0.10;;;26.60;42.90;;;;;;5076718;28;20039;-53
2022/06/27 07:28:51;;;;;;;0.25;0.03;;;26.60;42.90;;;;;;5072811;28;20040;-49
2022/06/27 07:31:19;;;;;;;0.10;0.10;;;26.60;42.90;;;;;;5052408;28;20098;-50
2022/06/27 07:33:51;;;;;;;0.28;0.10;;;26.60;42.90;;;;;;5073089;28;20040;-48
2022/06/27 07:36:19;;;;;;;0.10;0.10;;;26.60;42.90;;;;;;5079380;28;20060;-48
2022/06/27 07:38:49;;;;;;;0.57;0.43;;;26.60;42.90;;;;;;5075657;28;20485;-54
2022/06/27 07:41:19;;;;;;;0.10;0.00;;;26.60;42.90;;;;;;5078180;28;20044;-54
2022/06/27 07:43:48;;;;;;;1.00;0.20;;;26.60;42.90;;;;;;5083677;28;20072;-54
2022/06/27 07:46:20;;;;;;;1.00;0.10;;;26.60;42.90;;;;;;5075781;28;20582;-52
2022/06/27 07:48:48;;;;;;;0.17;0.10;;;26.70;42.90;;;;;;5069315;28;20051;-51
2022/06/27 07:51:19;;;;;;;0.82;0.22;;;26.60;42.80;;;;;;5078145;28;20049;-51
2022/06/27 07:53:48;;;;;;;1.85;0.25;;;26.70;42.90;;;;;;5078382;28;20731;-52
2022/06/27 07:56:17;;;;;;;0.10;0.10;;;26.60;42.80;;;;;;5072557;28;20519;-48
2022/06/27 07:58:44;;;;;;;2.35;0.10;;;26.70;42.80;;;;;;5073890;28;20170;-49
2022/06/27 08:01:14;;;;;;;0.30;0.30;;;26.70;42.80;;;;;;5055024;28;20417;-51
2022/06/27 08:03:44;;;;;;;1.65;0.10;;;26.70;42.80;;;;;;5083618;28;20040;-50
2022/06/27 08:06:15;;;;;;;0.28;0.10;;;26.70;42.70;;;;;;5073520;28;20062;-53
2022/06/27 08:08:45;;;;;;;0.13;0.10;;;26.70;42.60;;;;;;5074759;28;20048;-50
2022/06/27 08:11:13;;;;;;;0.55;0.10;;;26.70;42.60;;;;;;5079789;28;20035;-51
2022/06/27 08:13:43;;;;;;;0.15;0.15;;;26.80;42.60;;;;;;5083049;28;20109;-52
2022/06/27 08:16:14;;;;;;;0.25;0.10;;;26.80;42.70;;;;;;5070287;28;20119;-52
2022/06/27 08:18:44;;;;;;;0.38;0.10;;;26.80;42.60;;;;;;5074738;28;20060;-49
2022/06/27 08:21:11;;;;;;;0.30;0.10;;;26.80;42.50;;;;;;5073737;28;20044;-54
2022/06/27 08:23:39;;;;;;;1.15;0.20;;;26.80;42.40;;;;;;5074532;28;20530;-51
2022/06/27 08:26:10;;;;;;;0.20;0.10;;;26.80;42.40;;;;;;5075740;28;20142;-51
2022/06/27 08:28:38;;;;;;;0.60;0.35;;;26.80;42.40;;;;;;5071868;28;20047;-50
2022/06/27 08:31:07;;;;;;;0.10;0.10;;;26.80;42.40;;;;;;5050282;28;20036;-50
2022/06/27 08:33:36;;;;;;;4.32;0.10;;;26.80;42.40;;;;;;5081478;28;20028;-50
2022/06/27 08:36:05;;;;;;;0.88;0.10;;;26.80;42.40;;;;;;5078811;28;20049;-49
2022/06/27 08:38:40;;;;;;;0.10;0.10;;;26.80;42.40;;;;;;5071418;28;20128;-55
2022/06/27 08:41:08;;;;;;;0.57;0.10;;;26.80;42.40;;;;;;5072915;28;20051;-54
2022/06/27 08:43:36;;;;;;;0.68;0.10;;;26.80;42.40;;;;;;5053940;28;20040;-48
2022/06/27 08:46:04;;;;;;;0.55;0.10;;;26.80;42.40;;;;;;5073659;28;20044;-49
2022/06/27 08:48:32;;;;;;;0.20;0.17;;;26.80;42.30;;;;;;5071847;28;20040;-55
2022/06/27 08:51:05;;;;;;;1.85;0.10;;;26.90;42.40;;;;;;5076837;28;20072;-50
2022/06/27 08:53:33;;;;;;;0.65;0.30;;;26.90;42.50;;;;;;5077703;28;20055;-52
2022/06/27 08:56:02;;;;;;;0.10;0.00;;;26.90;42.40;;;;;;5071660;28;20512;-53
2022/06/27 08:58:30;;;;;;;0.93;0.10;;;26.90;42.30;;;;;;5075806;28;20068;-54
2022/06/27 09:00:59;;;;;;;0.25;0.10;;;26.90;42.20;;;;;;5069040;28;20501;-50
2022/06/27 09:03:26;;;;;;;0.40;0.10;;;26.90;42.20;;;;;;5072666;28;20433;-51
2022/06/27 09:05:58;;;;;;;0.45;0.00;;;27.00;42.20;;;;;;5079140;28;20424;-49
2022/06/27 09:08:28;;;;;;;0.40;0.10;;;27.00;42.20;;;;;;5075972;28;20040;-49
2022/06/27 09:10:56;;;;;;;0.15;0.10;;;27.00;42.20;;;;;;5073009;28;20572;-54
2022/06/27 09:13:25;;;;;;;0.20;0.10;;;27.00;42.10;;;;;;5081571;28;20539;-51
2022/06/27 09:15:55;;;;;;;0.10;0.10;;;27.00;42.10;;;;;;5078482;28;20412;-51
2022/06/27 09:18:25;;;;;;;0.25;0.15;;;27.00;42.10;;;;;;5076689;28;20131;-54
2022/06/27 09:20:55;;;;;;;0.30;0.10;;;27.00;42.60;;;;;;5070831;28;20118;-50
2022/06/27 09:23:47;;;;;;;0.65;0.10;;;27.00;42.00;;;;;;5055218;28;20467;-55
2022/06/27 09:26:17;;;;;;;0.22;0.10;;;27.00;41.90;;;;;;5076021;28;20039;-49
2022/06/27 09:28:48;;;;;;;0.10;0.10;;;27.00;42.00;;;;;;5071123;28;20416;-53
2022/06/27 09:31:39;;;;;;;0.10;0.10;;;27.00;42.00;;;;;;5068780;28;20068;-51
2022/06/27 09:34:18;;;;;;;0.90;0.30;;;27.00;41.90;;;;;;5069268;28;20036;-55
2022/06/27 09:36:50;;;;;;;0.05;0.00;;;27.00;42.00;;;;;;5073671;28;20398;-52
2022/06/27 09:39:25;;;;;;;0.63;0.10;;;27.00;42.00;;;;;;5072613;28;20040;-52
2022/06/27 09:41:56;;;;;;;0.80;0.10;;;27.00;41.90;;;;;;5081203;28;20056;-53
2022/06/27 09:44:27;;;;;;;0.55;0.00;;;27.00;41.90;;;;;;5081011;28;20128;-52
2022/06/27 09:47:02;;;;;;;0.35;0.35;;;27.00;41.90;;;;;;5074787;28;20059;-48
2022/06/27 09:49:33;;;;;;;0.10;0.10;;;27.00;41.90;;;;;;5076991;28;20060;-53
2022/06/27 09:52:04;;;;;;;0.30;0.10;;;27.00;41.90;;;;;;5070703;28;20040;-51
2022/06/27 09:54:35;;;;;;;0.70;0.10;;;27.00;41.90;;;;;;5090397;28;20517;-53
2022/06/27 09:57:03;;;;;;;0.20;0.10;;;27.00;41.80;;;;;;5080611;28;20098;-52
2022/06/27 09:59:31;;;;;;;0.10;0.00;;;27.00;41.80;;;;;;5079391;28;20083;-49
2022/06/27 10:02:00;;;;;;;0.15;0.10;;;27.00;41.80;;;;;;5074544;28;20048;-53
2022/06/27 10:04:30;;;;;;;0.17;0.10;;;27.00;41.80;;;;;;5073414;28;20044;-52
2022/06/27 10:07:00;;;;;;;0.32;0.03;;;27.00;41.70;;;;;;5070861;28;20044;-49
2022/06/27 10:09:29;;;;;;;1.42;0.10;;;27.10;41.80;;;;;;5078652;28;20047;-51
2022/06/27 10:12:24;;;;;;;0.10;0.10;;;27.00;41.70;;;;;;5085916;28;20053;-51
2022/06/27 10:15:20;;;;;;;0.28;0.20;;;27.10;41.70;;;;;;5077019;28;20051;-50
2022/06/27 10:17:54;;;;;;;0.32;0.32;;;27.10;41.70;;;;;;5080352;28;20049;-50
2022/06/27 10:20:28;;;;;;;0.00;0.00;;;27.00;41.70;;;;;;5074448;28;20068;-52
2022/06/27 10:23:28;;;;;;;0.68;0.00;;;27.00;41.70;;;;;;5077243;28;20040;-53
2022/06/27 10:25:58;;;;;;;0.10;0.10;;;27.10;41.70;;;;;;5076712;28;20626;-52
2022/06/27 10:28:27;;;;;;;0.20;0.10;;;27.10;41.80;;;;;;5075741;28;20208;-53
2022/06/27 10:30:58;;;;;;;0.60;0.45;;;27.10;41.70;;;;;;5052814;28;20048;-54
2022/06/27 10:33:39;;;;;;;0.00;0.00;;;27.10;41.70;;;;;;5078821;28;20527;-52
2022/06/27 10:36:13;;;;;;;1.80;0.30;;;27.10;41.60;;;;;;5083579;28;20063;-53
2022/06/27 10:38:55;;;;;;;0.10;0.10;;;27.10;41.60;;;;;;5074165;28;20045;-51
2022/06/27 10:41:42;;;;;;;0.00;0.00;;;27.20;41.60;;;;;;5081346;28;20043;-51
2022/06/27 10:44:36;;;;;;;0.10;0.00;;;27.20;41.50;;;;;;5080409;28;20051;-48
2022/06/27 10:47:05;;;;;;;0.10;0.08;;;27.20;41.40;;;;;;5074915;28;20041;-50
2022/06/27 10:49:34;;;;;;;0.38;0.10;;;27.20;41.40;;;;;;5076388;28;20107;-51
2022/06/27 10:52:32;;;;;;;1.17;0.05;;;27.20;41.40;;;;;;5073653;28;20068;-53
2022/06/27 10:55:01;;;;;;;1.08;0.10;;;27.30;41.30;;;;;;5069385;28;20048;-53
2022/06/27 10:57:44;;;;;;;0.00;0.00;;;27.30;41.30;;;;;;5072427;28;20048;-51
2022/06/27 11:00:39;;;;;;;0.10;0.10;;;27.30;41.10;;;;;;5084359;28;20036;-51
2022/06/27 11:03:09;;;;;;;0.00;0.00;;;27.40;41.20;;;;;;5076401;28;20783;-52
2022/06/27 11:06:00;;;;;;;0.15;0.00;;;27.30;41.10;;;;;;5071217;28;20124;-49
2022/06/27 11:08:28;;;;;;;1.33;0.38;;;27.40;41.00;;;;;;5058348;28;20048;-52
2022/06/27 11:10:56;;;;;;;0.52;0.15;;;27.40;41.00;;;;;;5055334;28;20048;-53
2022/06/27 11:13:37;;;;;;;0.25;0.00;;;27.40;40.90;;;;;;5063864;28;20036;-50
2022/06/27 11:16:06;;;;;;;0.00;0.00;;;27.50;40.90;;;;;;5049584;28;20132;-53
2022/06/27 11:18:46;;;;;;;1.55;0.00;;;27.50;40.90;;;;;;5056592;28;20047;-46
2022/06/27 11:21:16;;;;;;;0.22;0.00;;;27.60;40.80;;;;;;5054820;28;20397;-49
2022/06/27 11:24:10;;;;;;;0.43;0.10;;;27.60;40.80;;;;;;5057214;28;20033;-54
2022/06/27 11:26:45;;;;;;;0.00;0.00;;;27.60;40.60;;;;;;5049153;28;20052;-50
2022/06/27 11:32:05;;;;;;;0.88;0.08;;;27.60;40.60;;;;;;5056996;28;20127;-52
2022/06/27 11:34:36;;;;;;;0.10;0.10;;;27.70;40.60;;;;;;5052541;28;20128;-51
2022/06/27 11:37:08;;;;;;;0.20;0.00;;;27.70;40.60;;;;;;5054459;28;20068;-50
2022/06/27 11:39:36;;;;;;;0.00;0.00;;;27.70;40.60;;;;;;5051988;28;20524;-50
2022/06/27 11:42:09;;;;;;;0.10;0.03;;;27.70;40.50;;;;;;5067818;28;20037;-54
2022/06/27 11:44:38;;;;;;;1.48;0.00;;;27.80;40.50;;;;;;5060932;28;20067;-50
2022/06/27 11:47:08;;;;;;;1.08;0.00;;;27.80;40.50;;;;;;5051852;28;20033;-52
2022/06/27 11:49:38;;;;;;;0.55;0.10;;;27.80;40.50;;;;;;5055325;28;20041;-50
2022/06/27 11:52:10;;;;;;;0.55;0.00;;;27.90;40.50;;;;;;5051166;28;20041;-53
2022/06/27 11:54:39;;;;;;;0.10;0.10;;;27.90;40.40;;;;;;5066632;28;20065;-55
2022/06/27 11:57:22;;;;;;;0.00;0.00;;;28.00;40.40;;;;;;5056178;28;20045;-52
2022/06/27 11:59:51;;;;;;;0.15;0.10;;;28.00;40.30;;;;;;5055310;28;20053;-51
2022/06/27 12:02:27;;;;;;;0.10;0.03;;;28.00;40.20;;;;;;5051951;28;20033;-52
2022/06/27 12:05:11;;;;;;;0.45;0.00;;;28.10;40.20;;;;;;5065365;28;20048;-52
2022/06/27 12:07:55;;;;;;;0.10;0.10;;;28.10;40.10;;;;;;5071134;28;20036;-52
2022/06/27 12:10:36;;;;;;;0.15;0.00;;;28.10;40.10;;;;;;5072344;28;20127;-52
2022/06/27 12:13:04;;;;;;;0.22;0.22;;;28.20;40.10;;;;;;5080852;28;20123;-53
2022/06/27 12:15:32;;;;;;;0.00;0.00;;;28.20;40.10;;;;;;5076571;28;20037;-54
2022/06/27 12:18:01;;;;;;;2.72;0.03;;;28.20;39.90;;;;;;5077948;28;20488;-52
2022/06/27 12:20:32;;;;;;;0.10;0.10;;;28.30;39.90;;;;;;5071723;28;20033;-51
2022/06/27 12:23:00;;;;;;;0.20;0.05;;;28.30;39.80;;;;;;5074974;28;20039;-52
2022/06/27 12:25:28;;;;;;;0.10;0.10;;;28.30;39.70;;;;;;5071006;28;20416;-55
2022/06/27 12:27:55;;;;;;;0.95;0.10;;;28.40;39.60;;;;;;5073644;28;20090;-54
2022/06/27 12:30:23;;;;;;;0.30;0.10;;;28.40;39.50;;;;;;5073415;28;20045;-50
2022/06/27 12:32:50;;;;;;;0.73;0.32;;;28.50;39.50;;;;;;5075079;28;20044;-53
2022/06/27 12:35:18;;;;;;;0.90;0.10;;;28.50;39.40;;;;;;5077646;28;20047;-54
2022/06/27 12:37:47;;;;;;;0.50;0.10;;;28.60;39.30;;;;;;5071551;28;20040;-55
2022/06/27 12:40:14;;;;;;;1.15;0.10;;;28.60;39.10;;;;;;5075011;28;20087;-53
2022/06/27 12:42:42;;;;;;;0.10;0.10;;;28.70;39.00;;;;;;5083129;28;20055;-53
2022/06/27 12:45:10;;;;;;;0.20;0.05;;;28.70;38.90;;;;;;5081690;28;20068;-52
2022/06/27 12:47:37;;;;;;;0.10;0.00;;;28.80;38.80;;;;;;5074579;28;20066;-55
2022/06/27 12:50:06;;;;;;;0.50;0.00;;;28.90;38.70;;;;;;5078979;28;20032;-50
2022/06/27 12:52:33;;;;;;;0.08;0.00;;;28.90;38.60;;;;;;5071206;28;20036;-52
2022/06/27 12:55:02;;;;;;;0.35;0.10;;;29.00;38.60;;;;;;5073442;28;20404;-53
2022/06/27 12:57:29;;;;;;;0.38;0.38;;;29.00;38.40;;;;;;5071527;28;20120;-52
2022/06/27 12:59:56;;;;;;;0.00;0.00;;;29.10;38.40;;;;;;5077037;28;20063;-55
2022/06/27 13:02:23;;;;;;;0.20;0.10;;;29.10;38.20;;;;;;5075507;28;20072;-53
2022/06/27 13:04:50;;;;;;;0.08;0.08;;;29.20;38.20;;;;;;5073228;28;20409;-53
2022/06/27 13:07:17;;;;;;;0.55;0.00;;;29.30;38.20;;;;;;5069503;28;20505;-50
2022/06/27 13:09:45;;;;;;;0.28;0.10;;;29.30;38.00;;;;;;5072802;28;20072;-54